createdAt,value
2022-10-05T00:01:27.233Z,8.80
2022-10-05T00:04:00.983Z,8.80
2022-10-05T00:06:31.141Z,8.70
2022-10-05T00:09:01.106Z,8.70
2022-10-05T00:11:30.690Z,8.70
2022-10-05T00:13:59.759Z,8.70
2022-10-05T00:16:27.996Z,8.60
2022-10-05T00:18:56.171Z,8.60
2022-10-05T00:21:26.723Z,8.60
2022-10-05T00:23:59.620Z,8.60
2022-10-05T00:26:33.918Z,8.50
2022-10-05T00:29:06.791Z,8.50
2022-10-05T00:31:37.430Z,8.50
2022-10-05T00:34:05.608Z,8.50
2022-10-05T00:36:33.876Z,8.50
2022-10-05T00:39:04.742Z,8.50
2022-10-05T00:41:56.238Z,8.50
2022-10-05T00:44:38.653Z,8.50
2022-10-05T00:47:32.914Z,8.40
2022-10-05T00:50:21.829Z,8.40
2022-10-05T00:52:58.080Z,8.40
2022-10-05T00:55:39.682Z,8.30
2022-10-05T00:58:28.328Z,8.30
2022-10-05T01:01:07.203Z,8.30
2022-10-05T01:03:48.813Z,8.20
2022-10-05T01:06:28.086Z,8.20
2022-10-05T01:09:05.680Z,8.20
2022-10-05T01:11:43.135Z,8.20
2022-10-05T01:14:22.938Z,8.20
2022-10-05T01:16:57.153Z,8.10
2022-10-05T01:19:49.767Z,8.10
2022-10-05T01:22:34.943Z,8.10
2022-10-05T01:25:22.878Z,8.00
2022-10-05T01:28:03.506Z,8.00
2022-10-05T01:30:40.620Z,8.00
2022-10-05T01:33:20.959Z,7.90
2022-10-05T01:36:00.011Z,7.90
2022-10-05T01:38:43.150Z,7.90
2022-10-05T01:41:27.100Z,7.90
2022-10-05T01:44:05.431Z,7.80
2022-10-05T01:46:40.041Z,7.80
2022-10-05T01:49:34.696Z,7.80
2022-10-05T01:52:20.181Z,7.70
2022-10-05T01:55:03.704Z,7.70
2022-10-05T01:57:45.806Z,7.70
2022-10-05T02:00:18.233Z,7.70
2022-10-05T02:02:53.071Z,7.60
2022-10-05T02:05:24.557Z,7.60
2022-10-05T02:07:58.035Z,7.60
2022-10-05T02:10:34.083Z,7.50
2022-10-05T02:13:11.234Z,7.50
2022-10-05T02:15:46.939Z,7.50
2022-10-05T02:18:21.448Z,7.50
2022-10-05T02:20:51.924Z,7.40
2022-10-05T02:23:24.326Z,7.40
2022-10-05T02:25:54.176Z,7.40
2022-10-05T02:28:30.741Z,7.40
2022-10-05T02:31:08.172Z,7.30
2022-10-05T02:33:37.251Z,7.40
2022-10-05T02:36:17.367Z,7.30
2022-10-05T02:39:13.820Z,7.30
2022-10-05T02:41:51.548Z,7.30
2022-10-05T02:44:29.774Z,7.20
2022-10-05T02:47:10.935Z,7.20
2022-10-05T02:49:47.443Z,7.20
2022-10-05T02:52:24.107Z,7.20
2022-10-05T02:55:01.727Z,7.10
2022-10-05T02:57:37.130Z,7.10
2022-10-05T03:00:11.223Z,7.10
2022-10-05T03:02:46.519Z,7.10
2022-10-05T03:05:25.085Z,7.10
2022-10-05T03:08:02.032Z,7.00
2022-10-05T03:10:38.227Z,7.00
2022-10-05T03:13:13.686Z,7.00
2022-10-05T03:15:59.971Z,7.00
2022-10-05T03:18:45.748Z,7.00
2022-10-05T03:21:30.430Z,7.00
2022-10-05T03:24:22.821Z,7.00
2022-10-05T03:26:59.043Z,7.00
2022-10-05T03:29:35.328Z,7.00
2022-10-05T03:32:18.433Z,6.90
2022-10-05T03:34:56.767Z,6.90
2022-10-05T03:37:33.720Z,6.90
2022-10-05T03:40:09.858Z,6.90
2022-10-05T03:42:54.063Z,6.90
2022-10-05T03:45:29.750Z,6.90
2022-10-05T03:48:05.713Z,6.90
2022-10-05T03:50:46.914Z,6.90
2022-10-05T03:53:20.885Z,6.90
2022-10-05T03:55:56.567Z,6.90
2022-10-05T03:58:30.560Z,6.90
2022-10-05T04:01:05.030Z,6.90
2022-10-05T04:03:38.588Z,6.90
2022-10-05T04:06:16.116Z,6.90
2022-10-05T04:08:53.098Z,6.90
2022-10-05T04:11:28.947Z,6.80
2022-10-05T04:14:03.673Z,6.80
2022-10-05T04:16:37.445Z,6.80
2022-10-05T04:19:15.837Z,6.80
2022-10-05T04:21:53.411Z,6.70
2022-10-05T04:24:28.355Z,6.70
2022-10-05T04:27:00.492Z,6.70
2022-10-05T04:29:39.282Z,6.60
2022-10-05T04:32:30.442Z,6.60
2022-10-05T04:35:27.015Z,6.60
2022-10-05T04:38:12.118Z,6.60
2022-10-05T04:40:55.815Z,6.60
2022-10-05T04:43:35.727Z,6.50
2022-10-05T04:46:27.457Z,6.50
2022-10-05T04:49:23.412Z,6.50
2022-10-05T04:52:01.661Z,6.50
2022-10-05T04:54:47.611Z,6.50
2022-10-05T04:57:25.615Z,6.50
2022-10-05T05:00:09.911Z,6.50
2022-10-05T05:02:59.676Z,6.50
2022-10-05T05:05:48.350Z,6.50
2022-10-05T05:08:43.816Z,6.40
2022-10-05T05:11:24.693Z,6.40
2022-10-05T05:14:40.058Z,6.40
2022-10-05T05:17:26.421Z,6.40
2022-10-05T05:20:08.925Z,6.40
2022-10-05T05:22:48.142Z,6.40
2022-10-05T05:25:32.777Z,6.40
2022-10-05T05:28:17.102Z,6.40
2022-10-05T05:30:50.650Z,6.40
2022-10-05T05:33:24.119Z,6.50
2022-10-05T05:36:28.063Z,6.50
2022-10-05T05:39:23.180Z,6.50
2022-10-05T05:42:02.014Z,6.50
2022-10-05T05:44:39.093Z,6.50
2022-10-05T05:47:20.324Z,6.60
2022-10-05T05:50:08.484Z,6.90
2022-10-05T05:52:44.119Z,7.20
2022-10-05T05:55:29.033Z,7.50
2022-10-05T05:58:04.624Z,7.80
2022-10-05T06:00:42.115Z,8.00
2022-10-05T06:03:17.864Z,8.20
2022-10-05T06:05:50.750Z,8.40
2022-10-05T06:08:27.956Z,8.50
2022-10-05T06:11:11.230Z,8.60
2022-10-05T06:13:42.202Z,8.60
2022-10-05T06:16:20.860Z,8.60
2022-10-05T06:18:55.880Z,8.60
2022-10-05T06:21:31.337Z,8.50
2022-10-05T06:24:05.531Z,8.40
2022-10-05T06:27:18.997Z,8.40
2022-10-05T06:30:04.817Z,8.40
2022-10-05T06:32:49.017Z,8.60
2022-10-05T06:35:30.140Z,8.60
2022-10-05T06:38:16.792Z,8.80
2022-10-05T06:41:01.824Z,9.30
2022-10-05T06:43:46.470Z,9.90
2022-10-05T06:46:27.563Z,10.60
2022-10-05T06:49:19.618Z,11.20
2022-10-05T06:52:25.016Z,11.90
2022-10-05T06:55:14.081Z,12.50
2022-10-05T06:57:58.573Z,13.10
2022-10-05T07:00:35.327Z,13.90
2022-10-05T07:03:17.631Z,14.20
2022-10-05T07:06:10.302Z,14.50
2022-10-05T07:08:56.437Z,15.20
2022-10-05T07:11:58.454Z,15.90
2022-10-05T07:14:51.215Z,16.50
2022-10-05T07:17:36.617Z,17.10
2022-10-05T07:20:18.331Z,17.60
2022-10-05T07:23:17.982Z,18.20
2022-10-05T07:25:54.496Z,18.80
2022-10-05T07:28:34.029Z,19.60
2022-10-05T07:31:10.589Z,20.00
2022-10-05T07:33:48.198Z,20.00
2022-10-05T07:36:44.800Z,19.90
2022-10-05T07:39:23.532Z,19.90
2022-10-05T07:41:59.337Z,19.80
2022-10-05T07:44:36.373Z,19.90
2022-10-05T07:47:11.885Z,20.20
2022-10-05T07:49:51.299Z,20.50
2022-10-05T07:52:29.982Z,21.00
2022-10-05T07:55:08.466Z,21.30
2022-10-05T07:57:44.682Z,21.60
2022-10-05T08:00:20.131Z,22.20
2022-10-05T08:02:53.826Z,22.70
2022-10-05T08:05:27.902Z,23.20
2022-10-05T08:08:07.349Z,23.70
2022-10-05T08:10:43.615Z,24.00
2022-10-05T08:13:17.886Z,24.40
2022-10-05T08:15:51.441Z,24.80
2022-10-05T08:18:40.759Z,25.20
2022-10-05T08:21:11.938Z,25.70
2022-10-05T08:23:48.425Z,26.10
2022-10-05T08:26:28.236Z,26.50
2022-10-05T08:29:10.253Z,27.10
2022-10-05T08:31:44.494Z,27.40
2022-10-05T08:34:25.803Z,27.80
2022-10-05T08:37:01.806Z,28.40
2022-10-05T08:39:35.020Z,28.90
2022-10-05T08:42:42.178Z,29.10
2022-10-05T08:45:42.099Z,29.70
2022-10-05T08:48:41.757Z,30.10
2022-10-05T08:51:35.339Z,30.80
2022-10-05T08:54:36.373Z,31.30
2022-10-05T08:57:42.182Z,31.80
2022-10-05T09:00:14.592Z,32.50
2022-10-05T09:03:32.148Z,33.00
2022-10-05T09:06:28.234Z,33.40
2022-10-05T09:09:44.727Z,33.60
2022-10-05T09:12:47.503Z,33.80
2022-10-05T09:15:54.174Z,34.40
2022-10-05T09:19:01.331Z,34.60
2022-10-05T09:21:42.723Z,34.50
2022-10-05T09:24:29.580Z,34.60
2022-10-05T09:27:04.883Z,35.10
2022-10-05T09:30:20.820Z,35.40
2022-10-05T09:33:28.143Z,35.50
2022-10-05T09:36:47.234Z,35.70
2022-10-05T09:39:57.860Z,34.80
2022-10-05T09:43:06.601Z,35.00
2022-10-05T09:46:09.735Z,35.30
2022-10-05T09:49:13.130Z,34.10
2022-10-05T09:52:49.050Z,34.10
2022-10-05T09:56:12.194Z,34.40
2022-10-05T09:59:17.601Z,34.10
2022-10-05T10:02:22.933Z,34.30
2022-10-05T10:05:25.210Z,35.00
2022-10-05T10:08:10.148Z,35.10
2022-10-05T10:11:17.683Z,34.40
2022-10-05T10:14:23.273Z,34.10
2022-10-05T10:17:17.618Z,34.30
2022-10-05T10:20:19.176Z,34.70
2022-10-05T10:23:10.994Z,34.30
2022-10-05T10:26:32.688Z,35.20
2022-10-05T10:29:32.583Z,35.60
2022-10-05T10:32:59.007Z,36.30
2022-10-05T10:35:35.899Z,36.80
2022-10-05T10:38:41.223Z,37.10
2022-10-05T10:41:52.931Z,37.20
2022-10-05T10:45:00.114Z,36.10
2022-10-05T10:48:03.639Z,36.10
2022-10-05T10:51:08.511Z,36.40
2022-10-05T10:54:43.522Z,36.60
2022-10-05T10:57:16.144Z,36.70
2022-10-05T11:00:22.263Z,37.10
2022-10-05T11:03:30.341Z,36.90
2022-10-05T11:06:19.035Z,37.30
2022-10-05T11:09:29.290Z,37.40
2022-10-05T11:12:51.297Z,37.30
2022-10-05T11:16:19.442Z,37.20
2022-10-05T11:20:03.114Z,36.80
2022-10-05T11:23:00.531Z,37.50
2022-10-05T11:25:48.187Z,37.70
2022-10-05T11:29:18.439Z,37.50
2022-10-05T11:32:41.363Z,38.30
2022-10-05T11:35:50.424Z,38.60
2022-10-05T11:39:15.241Z,38.70
2022-10-05T11:42:24.911Z,38.90
2022-10-05T11:45:27.420Z,38.90
2022-10-05T11:48:31.542Z,38.70
2022-10-05T11:51:39.735Z,38.70
2022-10-05T11:54:58.388Z,38.90
2022-10-05T11:57:33.780Z,38.50
2022-10-05T12:00:13.385Z,38.30
2022-10-05T12:03:20.235Z,38.30
2022-10-05T12:06:15.460Z,38.30
2022-10-05T12:08:57.561Z,37.70
2022-10-05T12:11:48.752Z,37.10
2022-10-05T12:14:24.936Z,36.20
2022-10-05T12:16:59.845Z,36.10
2022-10-05T12:19:37.343Z,36.40
2022-10-05T12:22:16.994Z,36.80
2022-10-05T12:25:05.139Z,36.90
2022-10-05T12:27:41.718Z,36.20
2022-10-05T12:30:17.133Z,36.20
2022-10-05T12:33:01.826Z,35.10
2022-10-05T12:35:53.758Z,35.50
2022-10-05T12:38:29.427Z,35.70
2022-10-05T12:41:08.958Z,35.00
2022-10-05T12:43:50.852Z,35.00
2022-10-05T12:46:31.909Z,35.50
2022-10-05T12:49:26.701Z,35.40
2022-10-05T12:51:59.569Z,34.80
2022-10-05T12:54:41.537Z,34.60
2022-10-05T12:57:20.711Z,35.00
2022-10-05T12:59:57.155Z,35.30
2022-10-05T13:02:36.675Z,35.60
2022-10-05T13:05:21.161Z,36.20
2022-10-05T13:08:14.692Z,36.50
2022-10-05T13:10:49.390Z,35.90
2022-10-05T13:13:35.460Z,35.00
2022-10-05T13:16:15.328Z,35.70
2022-10-05T13:18:58.993Z,35.90
2022-10-05T13:21:47.236Z,36.10
2022-10-05T13:24:23.944Z,35.80
2022-10-05T13:27:00.535Z,35.50
2022-10-05T13:29:34.084Z,35.40
2022-10-05T13:32:08.632Z,34.90
2022-10-05T13:34:44.453Z,34.80
2022-10-05T13:37:23.627Z,34.40
2022-10-05T13:40:15.990Z,34.10
2022-10-05T13:42:50.430Z,33.60
2022-10-05T13:45:23.074Z,33.50
2022-10-05T13:48:13.500Z,33.30
2022-10-05T13:50:48.790Z,33.30
2022-10-05T13:53:24.465Z,33.20
2022-10-05T13:56:00.484Z,32.60
2022-10-05T13:58:40.477Z,31.50
2022-10-05T14:01:17.353Z,31.60
2022-10-05T14:04:15.953Z,32.30
2022-10-05T14:06:44.793Z,32.90
2022-10-05T14:09:28.804Z,33.30
2022-10-05T14:12:15.134Z,33.20
2022-10-05T14:14:48.076Z,33.00
2022-10-05T14:17:33.205Z,33.20
2022-10-05T14:20:03.742Z,33.30
2022-10-05T14:22:42.169Z,32.90
2022-10-05T14:25:18.205Z,33.20
2022-10-05T14:28:00.156Z,32.30
2022-10-05T14:30:30.520Z,31.90
2022-10-05T14:33:15.317Z,32.30
2022-10-05T14:35:50.242Z,32.50
2022-10-05T14:38:22.760Z,32.20
2022-10-05T14:41:18.564Z,32.50
2022-10-05T14:43:55.811Z,32.60
2022-10-05T14:46:29.854Z,32.50
2022-10-05T14:49:22.685Z,32.60
2022-10-05T14:51:53.299Z,32.60
2022-10-05T14:54:31.423Z,32.20
2022-10-05T14:57:07.702Z,31.80
2022-10-05T15:00:12.175Z,31.80
2022-10-05T15:02:58.273Z,31.70
2022-10-05T15:05:33.182Z,31.80
2022-10-05T15:08:16.064Z,31.50
2022-10-05T15:10:51.974Z,31.40
2022-10-05T15:13:26.316Z,31.70
2022-10-05T15:15:57.707Z,31.60
2022-10-05T15:18:36.276Z,31.40
2022-10-05T15:21:37.244Z,31.10
2022-10-05T15:24:10.243Z,30.80
2022-10-05T15:26:51.403Z,30.60
2022-10-05T15:29:51.370Z,30.40
2022-10-05T15:32:52.448Z,30.00
2022-10-05T15:35:54.167Z,29.50
2022-10-05T15:38:26.523Z,29.30
2022-10-05T15:41:09.402Z,28.90
2022-10-05T15:43:50.191Z,29.00
2022-10-05T15:46:25.192Z,29.20
2022-10-05T15:49:08.319Z,29.30
2022-10-05T15:52:04.621Z,29.20
2022-10-05T15:55:10.511Z,28.90
2022-10-05T15:57:47.847Z,28.80
2022-10-05T16:00:19.345Z,28.60
2022-10-05T16:02:55.312Z,28.40
2022-10-05T16:05:59.736Z,28.00
2022-10-05T16:08:51.768Z,27.80
2022-10-05T16:11:50.280Z,27.50
2022-10-05T16:14:35.648Z,27.10
2022-10-05T16:17:20.153Z,26.70
2022-10-05T16:20:03.683Z,26.40
2022-10-05T16:22:43.541Z,26.30
2022-10-05T16:25:23.181Z,26.00
2022-10-05T16:28:09.597Z,25.60
2022-10-05T16:30:51.083Z,25.30
2022-10-05T16:33:26.995Z,24.80
2022-10-05T16:36:08.648Z,24.30
2022-10-05T16:38:43.406Z,24.00
2022-10-05T16:41:22.041Z,23.60
2022-10-05T16:44:04.437Z,23.40
2022-10-05T16:46:40.838Z,23.10
2022-10-05T16:49:22.351Z,22.80
2022-10-05T16:51:59.017Z,22.60
2022-10-05T16:54:32.549Z,22.30
2022-10-05T16:57:10.077Z,22.00
2022-10-05T17:00:08.923Z,21.80
2022-10-05T17:02:55.473Z,21.50
2022-10-05T17:06:09.707Z,21.30
2022-10-05T17:09:27.325Z,21.10
2022-10-05T17:12:12.742Z,20.90
2022-10-05T17:14:57.508Z,20.60
2022-10-05T17:17:43.684Z,20.40
2022-10-05T17:20:44.544Z,20.20
2022-10-05T17:23:32.529Z,20.00
2022-10-05T17:26:33.073Z,19.80
2022-10-05T17:29:10.733Z,19.60
2022-10-05T17:32:11.710Z,19.30
2022-10-05T17:34:40.981Z,19.00
2022-10-05T17:37:36.442Z,18.90
2022-10-05T17:40:36.939Z,18.70
2022-10-05T17:43:25.183Z,18.50
2022-10-05T17:46:00.393Z,18.40
2022-10-05T17:49:46.741Z,18.20
2022-10-05T17:52:46.698Z,18.00
2022-10-05T17:55:38.587Z,17.80
2022-10-05T17:59:01.754Z,17.70
2022-10-05T18:01:33.840Z,17.50
2022-10-05T18:04:33.570Z,17.30
2022-10-05T18:07:17.098Z,17.20
2022-10-05T18:10:25.512Z,17.10
2022-10-05T18:13:22.124Z,17.00
2022-10-05T18:15:50.561Z,16.90
2022-10-05T18:18:57.176Z,16.80
2022-10-05T18:21:39.461Z,16.70
2022-10-05T18:24:55.749Z,16.60
2022-10-05T18:27:51.201Z,16.50
2022-10-05T18:30:23.838Z,16.40
2022-10-05T18:33:28.050Z,16.40
2022-10-05T18:36:19.602Z,16.30
2022-10-05T18:39:02.387Z,16.20
2022-10-05T18:41:45.267Z,16.10
2022-10-05T18:44:32.887Z,16.10
2022-10-05T18:47:09.777Z,16.00
2022-10-05T18:49:58.362Z,15.90
2022-10-05T18:52:43.908Z,15.80
2022-10-05T18:55:22.496Z,15.80
2022-10-05T18:58:18.956Z,15.70
2022-10-05T19:01:12.168Z,15.60
2022-10-05T19:03:54.987Z,15.60
2022-10-05T19:06:28.560Z,15.50
2022-10-05T19:09:09.284Z,15.50
2022-10-05T19:11:48.126Z,15.40
2022-10-05T19:14:29.648Z,15.30
2022-10-05T19:17:22.889Z,15.30
2022-10-05T19:20:07.190Z,15.30
2022-10-05T19:22:53.531Z,15.20
2022-10-05T19:25:38.532Z,15.20
2022-10-05T19:28:23.552Z,15.20
2022-10-05T19:31:18.781Z,15.20
2022-10-05T19:34:16.316Z,15.20
2022-10-05T19:37:00.261Z,15.20
2022-10-05T19:39:38.456Z,15.20
2022-10-05T19:42:44.559Z,15.20
2022-10-05T19:45:24.502Z,15.20
2022-10-05T19:48:10.629Z,15.20
2022-10-05T19:50:40.337Z,15.20
2022-10-05T19:53:17.006Z,15.10
2022-10-05T19:55:47.089Z,15.10
2022-10-05T19:58:22.384Z,14.90
2022-10-05T20:01:00.674Z,14.90
2022-10-05T20:03:31.714Z,14.70
2022-10-05T20:06:01.843Z,14.70
2022-10-05T20:08:39.574Z,14.60
2022-10-05T20:11:11.901Z,14.60
2022-10-05T20:13:42.376Z,14.50
2022-10-05T20:16:46.518Z,14.40
2022-10-05T20:19:50.479Z,14.30
2022-10-05T20:22:32.699Z,14.30
2022-10-05T20:25:03.113Z,14.20
2022-10-05T20:27:55.363Z,14.10
2022-10-05T20:30:25.847Z,14.10
2022-10-05T20:32:59.418Z,14.00
2022-10-05T20:35:30.627Z,13.90
2022-10-05T20:38:00.297Z,13.90
2022-10-05T20:40:29.311Z,13.80
2022-10-05T20:42:58.350Z,13.80
2022-10-05T20:45:26.663Z,13.70
2022-10-05T20:47:56.082Z,13.70
2022-10-05T20:50:24.285Z,13.70
2022-10-05T20:52:52.832Z,13.60
2022-10-05T20:55:21.133Z,13.50
2022-10-05T20:57:49.299Z,13.50
2022-10-05T21:00:17.519Z,13.40
2022-10-05T21:02:46.632Z,13.40
2022-10-05T21:05:18.212Z,13.30
2022-10-05T21:07:46.701Z,13.30
2022-10-05T21:10:14.943Z,13.30
2022-10-05T21:12:43.811Z,13.20
2022-10-05T21:15:12.475Z,13.20
2022-10-05T21:17:40.556Z,13.10
2022-10-05T21:20:11.538Z,13.10
2022-10-05T21:22:41.255Z,13.10
2022-10-05T21:25:10.143Z,13.00
2022-10-05T21:27:38.228Z,13.00
2022-10-05T21:30:07.799Z,12.90
2022-10-05T21:32:38.516Z,12.90
2022-10-05T21:35:09.503Z,12.80
2022-10-05T21:37:37.597Z,12.80
2022-10-05T21:40:08.155Z,12.70
2022-10-05T21:42:36.353Z,12.70
2022-10-05T21:45:05.280Z,12.60
2022-10-05T21:47:33.531Z,12.60
2022-10-05T21:50:03.627Z,12.50
2022-10-05T21:52:32.645Z,12.50
2022-10-05T21:55:00.714Z,12.50
2022-10-05T21:57:30.131Z,12.50
2022-10-05T21:59:58.249Z,12.40
2022-10-05T22:02:26.358Z,12.40
2022-10-05T22:04:54.446Z,12.30
2022-10-05T22:07:22.854Z,12.30
2022-10-05T22:09:52.220Z,12.20
2022-10-05T22:12:20.827Z,12.20
2022-10-05T22:14:50.578Z,12.20
2022-10-05T22:17:24.355Z,12.10
2022-10-05T22:19:52.721Z,12.10
2022-10-05T22:22:21.263Z,12.10
2022-10-05T22:24:49.359Z,12.00
2022-10-05T22:27:17.969Z,12.00
2022-10-05T22:29:46.132Z,12.00
2022-10-05T22:32:15.565Z,12.00
2022-10-05T22:34:43.665Z,12.00
2022-10-05T22:37:13.349Z,11.90
2022-10-05T22:39:41.814Z,11.90
2022-10-05T22:42:10.634Z,11.90
2022-10-05T22:44:38.990Z,11.80
2022-10-05T22:47:07.348Z,11.80
2022-10-05T22:49:36.777Z,11.80
2022-10-05T22:52:05.032Z,11.80
2022-10-05T22:54:37.082Z,11.80
2022-10-05T22:57:05.590Z,11.80
2022-10-05T22:59:33.835Z,11.70
2022-10-05T23:02:02.137Z,11.70
2022-10-05T23:04:30.864Z,11.70
2022-10-05T23:07:00.279Z,11.70
2022-10-05T23:09:28.355Z,11.60
2022-10-05T23:11:56.506Z,11.60
2022-10-05T23:14:25.087Z,11.60
2022-10-05T23:16:53.313Z,11.50
2022-10-05T23:19:23.032Z,11.40
2022-10-05T23:21:51.093Z,11.40
2022-10-05T23:24:20.532Z,11.30
2022-10-05T23:26:48.583Z,11.30
2022-10-05T23:29:16.681Z,11.30
2022-10-05T23:31:44.743Z,11.20
2022-10-05T23:34:12.837Z,11.20
2022-10-05T23:36:40.905Z,11.10
2022-10-05T23:39:08.979Z,11.10
2022-10-05T23:41:38.390Z,11.10
2022-10-05T23:44:06.472Z,11.10
2022-10-05T23:46:34.594Z,11.00
2022-10-05T23:49:02.664Z,11.00
2022-10-05T23:51:30.758Z,11.00
2022-10-05T23:53:58.824Z,11.00
2022-10-05T23:56:26.876Z,11.00
2022-10-05T23:58:56.305Z,10.90
